KONT/ONT METAR and TAF weather

Enter ICAO airport designator
Station Type Date Time Source
KONT METAR 2022/11/26 09:53 UTC NOAA

KONT 260953Z 00000KT 10SM CLR 08/M04 A3015 RMK AO2 SLP205 T00781039


Station Type Date Time Source
KONT Decoded METAR 2022/11/26 09:53 UTC NOAA

ONTARIO INTERNATIONAL AIRPORT, CA, United States (KONT) 34-03N 117-35W 275M
Nov 26, 2022 - 04:53 AM EST / 2022.11.26 0953 UTC
Wind: Calm:0
Visibility: 10 mile(s):0
Sky conditions: clear
Temperature: 46.0 F (7.8 C)
Dew Point: 25.0 F (-3.9 C)
Relative Humidity: 43%
Pressure (altimeter): 30.15 in. Hg (1020 hPa)
ob: KONT 260953Z 00000KT 10SM CLR 08/M04 A3015 RMK AO2 SLP205 T00781039
cycle: 10

Station Type Date Time Source
KONT TAF 2022/11/26 06:22 UTC NOAA

TAF KONT 260520Z 2606/2712 05004KT P6SM SKC
FM261900 26009KT P6SM SKC
FM270400 VRB04KT P6SM SKC

Example: see airport list